Terminal Aerodrome Forecast
Issued by NWS

Home | Current Version | Previous Version | Text Only | Print | Product List | Glossary On
Versions: 1 2 3 4 5 6 7 8 9 10 11 12 13
000
FTUS46 KSGX 191737
TAFONT
TAF
KONT 191737Z 1918/2024 VRB04KT P6SM SKC
     FM192000 26012KT P6SM SCT250
     FM200330 VRB05KT P6SM FEW008
     FM201200 VRB03KT 4SM BR BKN007
     FM201500 VRB04KT 6SM HZ SCT010
     FM201700 VRB06KT P6SM FEW250
     FM202000 26012KT P6SM FEW250=

USA.gov is the U.S. government's official web portal to all federal, state and local government web resources and services.